首页
METAR-TAF:

METAR-TAF

机场 :

Elkhart Municipal Airport

埃尔克哈特, 印第安纳州, 美国

纬度: 41-43N, 经度: 086-00W, 海拔: 237米

当前天气观测

该预报发布于1小时和7分钟前的19:52 UTC
风速12节,风向西北,有时为20节阵风
温度 22°C
湿度 46%
气压 1016 hPa
能見度: 16.1公里
散云层高于4600英尺

METAR: KEKM 231952Z 31012G20KT 10SM SCT046 22/10 A3001 RMK AO2

时间: 16:59 (20:59 UTC)


TAF: 丢失

超过4000个机场的气象观测和天气预报(METAR&TAF报告)。

可查询的气象台以黄色和红色小点在地图上表示。

将鼠标移到小点上方,可查看气象台名称。

然后点击查看天气观测和预报。

如需切换地图:点击带黑十字的绿色按钮放大地图;点击带横线的绿色按钮缩小地图;或者点击绿色箭头查看邻近地区的地图。


METAR-TAF: